sensor_id;sensor_type;location;lat;lon;timestamp;P1;durP1;ratioP1;P2;durP2;ratioP2
67941;SDS011;54731;42.600;23.476;2022-11-20T00:00:57;5.30;;;2.00;;
67941;SDS011;54731;42.600;23.476;2022-11-20T00:03:28;13.68;;;4.00;;
67941;SDS011;54731;42.600;23.476;2022-11-20T00:05:53;16.77;;;5.30;;
67941;SDS011;54731;42.600;23.476;2022-11-20T00:08:19;12.60;;;4.33;;
67941;SDS011;54731;42.600;23.476;2022-11-20T00:10:44;7.87;;;3.00;;
67941;SDS011;54731;42.600;23.476;2022-11-20T00:13:09;5.63;;;1.93;;
67941;SDS011;54731;42.600;23.476;2022-11-20T00:15:35;4.10;;;2.17;;
67941;SDS011;54731;42.600;23.476;2022-11-20T00:18:00;5.57;;;2.57;;
67941;SDS011;54731;42.600;23.476;2022-11-20T00:20:25;3.28;;;1.73;;
67941;SDS011;54731;42.600;23.476;2022-11-20T00:22:51;4.07;;;1.83;;
67941;SDS011;54731;42.600;23.476;2022-11-20T00:25:16;6.53;;;1.87;;
67941;SDS011;54731;42.600;23.476;2022-11-20T00:27:42;4.57;;;1.63;;
67941;SDS011;54731;42.600;23.476;2022-11-20T00:30:07;10.05;;;1.80;;
67941;SDS011;54731;42.600;23.476;2022-11-20T00:32:33;2.67;;;1.50;;
67941;SDS011;54731;42.600;23.476;2022-11-20T00:34:58;3.17;;;1.40;;
67941;SDS011;54731;42.600;23.476;2022-11-20T00:37:24;3.58;;;1.73;;
67941;SDS011;54731;42.600;23.476;2022-11-20T00:39:49;4.17;;;1.70;;
67941;SDS011;54731;42.600;23.476;2022-11-20T00:42:14;3.73;;;1.60;;
67941;SDS011;54731;42.600;23.476;2022-11-20T00:44:40;3.30;;;1.53;;
67941;SDS011;54731;42.600;23.476;2022-11-20T00:47:05;4.00;;;1.73;;
67941;SDS011;54731;42.600;23.476;2022-11-20T00:49:30;3.03;;;1.50;;
67941;SDS011;54731;42.600;23.476;2022-11-20T00:51:56;5.00;;;1.80;;
67941;SDS011;54731;42.600;23.476;2022-11-20T00:54:21;3.20;;;1.53;;
67941;SDS011;54731;42.600;23.476;2022-11-20T00:56:46;3.57;;;1.50;;
67941;SDS011;54731;42.600;23.476;2022-11-20T00:59:12;4.57;;;1.63;;
67941;SDS011;54731;42.600;23.476;2022-11-20T01:01:37;3.57;;;1.67;;
67941;SDS011;54731;42.600;23.476;2022-11-20T01:04:02;3.93;;;1.73;;
67941;SDS011;54731;42.600;23.476;2022-11-20T01:06:29;3.40;;;1.50;;
67941;SDS011;54731;42.600;23.476;2022-11-20T01:08:57;6.63;;;2.72;;
67941;SDS011;54731;42.600;23.476;2022-11-20T01:11:27;13.68;;;5.65;;
67941;SDS011;54731;42.600;23.476;2022-11-20T01:13:55;4.70;;;1.80;;
67941;SDS011;54731;42.600;23.476;2022-11-20T01:16:23;5.53;;;1.45;;
67941;SDS011;54731;42.600;23.476;2022-11-20T01:18:53;2.80;;;1.17;;
67941;SDS011;54731;42.600;23.476;2022-11-20T01:21:22;3.13;;;1.40;;
67941;SDS011;54731;42.600;23.476;2022-11-20T01:23:49;6.13;;;3.25;;
67941;SDS011;54731;42.600;23.476;2022-11-20T01:26:17;4.72;;;2.42;;
67941;SDS011;54731;42.600;23.476;2022-11-20T01:28:44;16.00;;;5.95;;
67941;SDS011;54731;42.600;23.476;2022-11-20T01:31:10;2.80;;;1.27;;
67941;SDS011;54731;42.600;23.476;2022-11-20T01:33:38;4.90;;;1.50;;
67941;SDS011;54731;42.600;23.476;2022-11-20T01:36:05;3.65;;;1.00;;
67941;SDS011;54731;42.600;23.476;2022-11-20T01:38:31;2.30;;;1.30;;
67941;SDS011;54731;42.600;23.476;2022-11-20T01:40:56;3.90;;;1.17;;
67941;SDS011;54731;42.600;23.476;2022-11-20T01:43:22;3.83;;;1.10;;
67941;SDS011;54731;42.600;23.476;2022-11-20T01:48:25;5.75;;;1.98;;
67941;SDS011;54731;42.600;23.476;2022-11-20T01:50:53;4.20;;;1.13;;
67941;SDS011;54731;42.600;23.476;2022-11-20T01:53:21;3.83;;;1.20;;
67941;SDS011;54731;42.600;23.476;2022-11-20T01:55:54;6.17;;;3.03;;
67941;SDS011;54731;42.600;23.476;2022-11-20T01:58:24;3.85;;;1.50;;
67941;SDS011;54731;42.600;23.476;2022-11-20T02:00:55;5.28;;;1.60;;
67941;SDS011;54731;42.600;23.476;2022-11-20T02:03:21;7.80;;;2.60;;
67941;SDS011;54731;42.600;23.476;2022-11-20T02:08:25;7.60;;;2.75;;
67941;SDS011;54731;42.600;23.476;2022-11-20T02:10:50;7.53;;;2.80;;
67941;SDS011;54731;42.600;23.476;2022-11-20T02:13:15;3.87;;;1.37;;
67941;SDS011;54731;42.600;23.476;2022-11-20T02:15:41;4.60;;;2.00;;
67941;SDS011;54731;42.600;23.476;2022-11-20T02:18:07;4.85;;;1.38;;
67941;SDS011;54731;42.600;23.476;2022-11-20T02:20:34;4.70;;;1.40;;
67941;SDS011;54731;42.600;23.476;2022-11-20T02:23:08;3.50;;;0.97;;
67941;SDS011;54731;42.600;23.476;2022-11-20T02:25:39;5.43;;;1.67;;
67941;SDS011;54731;42.600;23.476;2022-11-20T02:28:06;8.60;;;1.20;;
67941;SDS011;54731;42.600;23.476;2022-11-20T02:30:32;2.50;;;0.93;;
67941;SDS011;54731;42.600;23.476;2022-11-20T02:32:57;6.63;;;1.30;;
67941;SDS011;54731;42.600;23.476;2022-11-20T02:37:49;2.55;;;1.27;;
67941;SDS011;54731;42.600;23.476;2022-11-20T02:40:17;3.67;;;1.25;;
67941;SDS011;54731;42.600;23.476;2022-11-20T02:42:43;2.65;;;0.93;;
67941;SDS011;54731;42.600;23.476;2022-11-20T02:45:08;3.20;;;0.80;;
67941;SDS011;54731;42.600;23.476;2022-11-20T02:47:34;3.37;;;0.77;;
67941;SDS011;54731;42.600;23.476;2022-11-20T02:49:59;3.77;;;0.80;;
67941;SDS011;54731;42.600;23.476;2022-11-20T02:52:25;1.37;;;0.40;;
67941;SDS011;54731;42.600;23.476;2022-11-20T02:54:50;2.55;;;0.38;;
67941;SDS011;54731;42.600;23.476;2022-11-20T02:57:16;1.35;;;0.30;;
67941;SDS011;54731;42.600;23.476;2022-11-20T02:59:41;3.45;;;0.40;;
67941;SDS011;54731;42.600;23.476;2022-11-20T03:02:07;3.20;;;0.60;;
67941;SDS011;54731;42.600;23.476;2022-11-20T03:04:32;3.07;;;0.50;;
67941;SDS011;54731;42.600;23.476;2022-11-20T03:06:57;1.43;;;0.40;;
67941;SDS011;54731;42.600;23.476;2022-11-20T03:09:23;1.00;;;0.30;;
67941;SDS011;54731;42.600;23.476;2022-11-20T03:11:48;2.07;;;0.40;;
67941;SDS011;54731;42.600;23.476;2022-11-20T03:14:13;4.80;;;0.80;;
67941;SDS011;54731;42.600;23.476;2022-11-20T03:16:39;1.63;;;0.23;;
67941;SDS011;54731;42.600;23.476;2022-11-20T03:19:04;6.70;;;0.80;;
67941;SDS011;54731;42.600;23.476;2022-11-20T03:21:29;2.93;;;0.30;;
67941;SDS011;54731;42.600;23.476;2022-11-20T03:23:55;3.33;;;0.80;;
67941;SDS011;54731;42.600;23.476;2022-11-20T03:26:21;2.80;;;0.37;;
67941;SDS011;54731;42.600;23.476;2022-11-20T03:28:52;4.40;;;0.35;;
67941;SDS011;54731;42.600;23.476;2022-11-20T03:31:19;5.60;;;0.60;;
67941;SDS011;54731;42.600;23.476;2022-11-20T03:33:58;3.00;;;0.47;;
67941;SDS011;54731;42.600;23.476;2022-11-20T03:36:25;3.47;;;0.50;;
67941;SDS011;54731;42.600;23.476;2022-11-20T03:38:52;2.05;;;0.30;;
67941;SDS011;54731;42.600;23.476;2022-11-20T03:41:20;3.35;;;0.88;;
67941;SDS011;54731;42.600;23.476;2022-11-20T03:43:59;3.30;;;0.70;;
67941;SDS011;54731;42.600;23.476;2022-11-20T03:46:27;3.33;;;0.77;;
67941;SDS011;54731;42.600;23.476;2022-11-20T03:48:53;3.70;;;1.27;;
67941;SDS011;54731;42.600;23.476;2022-11-20T03:51:20;4.28;;;1.30;;
67941;SDS011;54731;42.600;23.476;2022-11-20T03:53:47;2.63;;;1.00;;
67941;SDS011;54731;42.600;23.476;2022-11-20T03:56:14;4.47;;;0.75;;
67941;SDS011;54731;42.600;23.476;2022-11-20T03:58:42;1.67;;;0.50;;
67941;SDS011;54731;42.600;23.476;2022-11-20T04:01:11;3.35;;;0.55;;
67941;SDS011;54731;42.600;23.476;2022-11-20T04:03:42;6.93;;;1.48;;
67941;SDS011;54731;42.600;23.476;2022-11-20T04:08:40;4.80;;;1.40;;
67941;SDS011;54731;42.600;23.476;2022-11-20T04:13:39;5.28;;;0.98;;
67941;SDS011;54731;42.600;23.476;2022-11-20T04:16:06;2.80;;;0.60;;
67941;SDS011;54731;42.600;23.476;2022-11-20T04:18:32;2.10;;;0.30;;
67941;SDS011;54731;42.600;23.476;2022-11-20T04:20:58;1.55;;;0.50;;
67941;SDS011;54731;42.600;23.476;2022-11-20T04:23:24;1.27;;;0.43;;
67941;SDS011;54731;42.600;23.476;2022-11-20T04:25:49;2.00;;;0.30;;
67941;SDS011;54731;42.600;23.476;2022-11-20T04:28:15;1.42;;;0.43;;
67941;SDS011;54731;42.600;23.476;2022-11-20T04:30:40;2.20;;;0.50;;
67941;SDS011;54731;42.600;23.476;2022-11-20T04:33:06;2.27;;;0.50;;
67941;SDS011;54731;42.600;23.476;2022-11-20T04:35:33;1.97;;;0.50;;
67941;SDS011;54731;42.600;23.476;2022-11-20T04:37:59;1.27;;;0.40;;
67941;SDS011;54731;42.600;23.476;2022-11-20T04:40:24;6.37;;;1.47;;
67941;SDS011;54731;42.600;23.476;2022-11-20T04:42:50;2.43;;;0.80;;
67941;SDS011;54731;42.600;23.476;2022-11-20T04:45:15;2.30;;;0.60;;
67941;SDS011;54731;42.600;23.476;2022-11-20T04:47:40;2.22;;;0.43;;
67941;SDS011;54731;42.600;23.476;2022-11-20T04:50:06;2.37;;;0.50;;
67941;SDS011;54731;42.600;23.476;2022-11-20T04:52:31;2.87;;;0.40;;
67941;SDS011;54731;42.600;23.476;2022-11-20T04:54:57;1.53;;;0.43;;
67941;SDS011;54731;42.600;23.476;2022-11-20T04:57:22;3.13;;;0.60;;
67941;SDS011;54731;42.600;23.476;2022-11-20T04:59:47;2.77;;;0.70;;
67941;SDS011;54731;42.600;23.476;2022-11-20T05:02:12;3.07;;;0.40;;
67941;SDS011;54731;42.600;23.476;2022-11-20T05:04:38;1.23;;;0.45;;
67941;SDS011;54731;42.600;23.476;2022-11-20T05:07:03;5.00;;;1.80;;
67941;SDS011;54731;42.600;23.476;2022-11-20T05:09:29;4.97;;;1.30;;
67941;SDS011;54731;42.600;23.476;2022-11-20T05:11:55;2.72;;;0.57;;
67941;SDS011;54731;42.600;23.476;2022-11-20T05:14:20;1.73;;;0.50;;
67941;SDS011;54731;42.600;23.476;2022-11-20T05:16:45;4.53;;;0.50;;
67941;SDS011;54731;42.600;23.476;2022-11-20T05:19:10;5.67;;;0.87;;
67941;SDS011;54731;42.600;23.476;2022-11-20T05:21:36;5.13;;;1.60;;
67941;SDS011;54731;42.600;23.476;2022-11-20T05:24:01;5.60;;;0.80;;
67941;SDS011;54731;42.600;23.476;2022-11-20T05:26:26;3.77;;;0.70;;
67941;SDS011;54731;42.600;23.476;2022-11-20T05:28:52;4.70;;;0.63;;
67941;SDS011;54731;42.600;23.476;2022-11-20T05:31:18;4.65;;;0.80;;
67941;SDS011;54731;42.600;23.476;2022-11-20T05:33:48;8.38;;;1.67;;
67941;SDS011;54731;42.600;23.476;2022-11-20T05:36:13;6.03;;;1.40;;
67941;SDS011;54731;42.600;23.476;2022-11-20T05:38:39;5.68;;;1.30;;
67941;SDS011;54731;42.600;23.476;2022-11-20T05:41:06;6.75;;;1.60;;
67941;SDS011;54731;42.600;23.476;2022-11-20T05:43:37;6.38;;;1.63;;
67941;SDS011;54731;42.600;23.476;2022-11-20T05:46:04;3.15;;;1.05;;
67941;SDS011;54731;42.600;23.476;2022-11-20T05:48:30;3.63;;;1.30;;
67941;SDS011;54731;42.600;23.476;2022-11-20T05:50:56;2.00;;;0.65;;
67941;SDS011;54731;42.600;23.476;2022-11-20T05:53:23;3.17;;;0.80;;
67941;SDS011;54731;42.600;23.476;2022-11-20T05:55:55;4.03;;;1.07;;
67941;SDS011;54731;42.600;23.476;2022-11-20T05:58:24;2.80;;;0.70;;
67941;SDS011;54731;42.600;23.476;2022-11-20T06:00:49;1.77;;;0.90;;
67941;SDS011;54731;42.600;23.476;2022-11-20T06:03:15;3.17;;;0.70;;
67941;SDS011;54731;42.600;23.476;2022-11-20T06:05:40;4.55;;;0.75;;
67941;SDS011;54731;42.600;23.476;2022-11-20T06:08:06;3.43;;;0.90;;
67941;SDS011;54731;42.600;23.476;2022-11-20T06:10:31;4.43;;;0.60;;
67941;SDS011;54731;42.600;23.476;2022-11-20T06:12:57;4.50;;;0.70;;
67941;SDS011;54731;42.600;23.476;2022-11-20T06:15:23;2.92;;;0.60;;
67941;SDS011;54731;42.600;23.476;2022-11-20T06:17:51;5.97;;;0.70;;
67941;SDS011;54731;42.600;23.476;2022-11-20T06:20:20;2.85;;;0.82;;
67941;SDS011;54731;42.600;23.476;2022-11-20T06:22:46;3.73;;;0.80;;
67941;SDS011;54731;42.600;23.476;2022-11-20T06:25:12;4.07;;;0.70;;
67941;SDS011;54731;42.600;23.476;2022-11-20T06:27:37;2.67;;;0.50;;
67941;SDS011;54731;42.600;23.476;2022-11-20T06:30:03;2.10;;;0.73;;
67941;SDS011;54731;42.600;23.476;2022-11-20T06:32:29;3.47;;;0.80;;
67941;SDS011;54731;42.600;23.476;2022-11-20T06:34:54;4.37;;;0.57;;
67941;SDS011;54731;42.600;23.476;2022-11-20T06:37:19;2.00;;;0.50;;
67941;SDS011;54731;42.600;23.476;2022-11-20T06:39:44;4.97;;;1.70;;
67941;SDS011;54731;42.600;23.476;2022-11-20T06:42:10;3.20;;;1.17;;
67941;SDS011;54731;42.600;23.476;2022-11-20T06:44:35;4.63;;;0.87;;
67941;SDS011;54731;42.600;23.476;2022-11-20T06:47:00;6.33;;;2.20;;
67941;SDS011;54731;42.600;23.476;2022-11-20T06:49:26;21.38;;;7.00;;
67941;SDS011;54731;42.600;23.476;2022-11-20T06:51:51;10.97;;;3.57;;
67941;SDS011;54731;42.600;23.476;2022-11-20T06:54:16;9.70;;;2.40;;
67941;SDS011;54731;42.600;23.476;2022-11-20T06:56:42;6.83;;;0.80;;
67941;SDS011;54731;42.600;23.476;2022-11-20T06:59:07;1.67;;;0.43;;
67941;SDS011;54731;42.600;23.476;2022-11-20T07:01:32;2.33;;;0.70;;
67941;SDS011;54731;42.600;23.476;2022-11-20T07:03:58;2.60;;;0.90;;
67941;SDS011;54731;42.600;23.476;2022-11-20T07:06:23;4.07;;;1.65;;
67941;SDS011;54731;42.600;23.476;2022-11-20T07:08:50;4.10;;;0.90;;
67941;SDS011;54731;42.600;23.476;2022-11-20T07:11:15;4.28;;;1.50;;
67941;SDS011;54731;42.600;23.476;2022-11-20T07:13:41;4.75;;;0.57;;
67941;SDS011;54731;42.600;23.476;2022-11-20T07:16:07;2.77;;;0.50;;
67941;SDS011;54731;42.600;23.476;2022-11-20T07:18:32;2.13;;;0.50;;
67941;SDS011;54731;42.600;23.476;2022-11-20T07:21:05;2.27;;;0.80;;
67941;SDS011;54731;42.600;23.476;2022-11-20T07:23:31;4.85;;;0.98;;
67941;SDS011;54731;42.600;23.476;2022-11-20T07:25:57;13.63;;;5.50;;
67941;SDS011;54731;42.600;23.476;2022-11-20T07:28:22;18.43;;;6.63;;
67941;SDS011;54731;42.600;23.476;2022-11-20T07:30:51;12.77;;;4.83;;
67941;SDS011;54731;42.600;23.476;2022-11-20T07:33:18;8.05;;;2.78;;
67941;SDS011;54731;42.600;23.476;2022-11-20T07:35:43;8.55;;;2.53;;
67941;SDS011;54731;42.600;23.476;2022-11-20T07:38:09;11.40;;;2.83;;
67941;SDS011;54731;42.600;23.476;2022-11-20T07:40:34;118.37;;;46.60;;
67941;SDS011;54731;42.600;23.476;2022-11-20T07:42:59;14.03;;;5.37;;
67941;SDS011;54731;42.600;23.476;2022-11-20T07:45:25;5.80;;;1.50;;
67941;SDS011;54731;42.600;23.476;2022-11-20T07:47:50;2.53;;;0.73;;
67941;SDS011;54731;42.600;23.476;2022-11-20T07:50:16;4.57;;;0.40;;
67941;SDS011;54731;42.600;23.476;2022-11-20T07:52:41;2.70;;;0.50;;
67941;SDS011;54731;42.600;23.476;2022-11-20T07:55:07;1.88;;;0.40;;
67941;SDS011;54731;42.600;23.476;2022-11-20T07:57:34;3.58;;;0.60;;
67941;SDS011;54731;42.600;23.476;2022-11-20T07:59:59;2.88;;;0.65;;
67941;SDS011;54731;42.600;23.476;2022-11-20T08:02:24;5.17;;;0.97;;
67941;SDS011;54731;42.600;23.476;2022-11-20T08:04:51;7.30;;;1.20;;
67941;SDS011;54731;42.600;23.476;2022-11-20T08:07:16;3.65;;;0.52;;
67941;SDS011;54731;42.600;23.476;2022-11-20T08:09:41;1.93;;;0.50;;
67941;SDS011;54731;42.600;23.476;2022-11-20T08:12:07;2.93;;;0.80;;
67941;SDS011;54731;42.600;23.476;2022-11-20T08:14:35;11.50;;;3.47;;
67941;SDS011;54731;42.600;23.476;2022-11-20T08:17:00;14.52;;;4.13;;
67941;SDS011;54731;42.600;23.476;2022-11-20T08:19:26;4.03;;;1.40;;
67941;SDS011;54731;42.600;23.476;2022-11-20T08:21:51;23.63;;;8.17;;
67941;SDS011;54731;42.600;23.476;2022-11-20T08:24:16;40.10;;;13.40;;
67941;SDS011;54731;42.600;23.476;2022-11-20T08:26:41;25.30;;;8.35;;
67941;SDS011;54731;42.600;23.476;2022-11-20T08:29:07;22.03;;;6.93;;
67941;SDS011;54731;42.600;23.476;2022-11-20T08:31:32;30.60;;;10.93;;
67941;SDS011;54731;42.600;23.476;2022-11-20T08:33:58;27.93;;;9.93;;
67941;SDS011;54731;42.600;23.476;2022-11-20T08:36:23;24.97;;;10.77;;
67941;SDS011;54731;42.600;23.476;2022-11-20T08:38:50;16.17;;;6.72;;
67941;SDS011;54731;42.600;23.476;2022-11-20T08:41:17;20.17;;;7.45;;
67941;SDS011;54731;42.600;23.476;2022-11-20T08:43:42;9.03;;;2.83;;
67941;SDS011;54731;42.600;23.476;2022-11-20T08:46:08;1.83;;;0.57;;
67941;SDS011;54731;42.600;23.476;2022-11-20T08:48:33;5.17;;;0.90;;
67941;SDS011;54731;42.600;23.476;2022-11-20T08:50:58;3.72;;;0.70;;
67941;SDS011;54731;42.600;23.476;2022-11-20T08:53:24;3.57;;;1.07;;
67941;SDS011;54731;42.600;23.476;2022-11-20T08:55:49;1.87;;;0.70;;
67941;SDS011;54731;42.600;23.476;2022-11-20T08:58:15;4.03;;;0.68;;
67941;SDS011;54731;42.600;23.476;2022-11-20T09:00:40;4.03;;;0.63;;
67941;SDS011;54731;42.600;23.476;2022-11-20T09:03:06;4.23;;;0.80;;
67941;SDS011;54731;42.600;23.476;2022-11-20T09:05:31;6.03;;;0.60;;
67941;SDS011;54731;42.600;23.476;2022-11-20T09:07:57;2.33;;;0.77;;
67941;SDS011;54731;42.600;23.476;2022-11-20T09:10:23;4.27;;;1.43;;
67941;SDS011;54731;42.600;23.476;2022-11-20T09:12:48;11.43;;;4.03;;
67941;SDS011;54731;42.600;23.476;2022-11-20T09:15:14;6.63;;;2.80;;
67941;SDS011;54731;42.600;23.476;2022-11-20T09:17:39;9.13;;;2.23;;
67941;SDS011;54731;42.600;23.476;2022-11-20T09:20:05;5.90;;;1.53;;
67941;SDS011;54731;42.600;23.476;2022-11-20T09:22:30;7.53;;;1.58;;
67941;SDS011;54731;42.600;23.476;2022-11-20T09:24:55;3.60;;;0.80;;
67941;SDS011;54731;42.600;23.476;2022-11-20T09:27:21;3.97;;;1.30;;
67941;SDS011;54731;42.600;23.476;2022-11-20T09:29:46;4.73;;;1.87;;
67941;SDS011;54731;42.600;23.476;2022-11-20T09:32:11;33.83;;;13.77;;
67941;SDS011;54731;42.600;23.476;2022-11-20T09:34:37;44.37;;;17.60;;
67941;SDS011;54731;42.600;23.476;2022-11-20T09:37:02;28.50;;;9.63;;
67941;SDS011;54731;42.600;23.476;2022-11-20T09:39:27;24.23;;;9.50;;
67941;SDS011;54731;42.600;23.476;2022-11-20T09:41:56;31.37;;;12.20;;
67941;SDS011;54731;42.600;23.476;2022-11-20T09:47:24;23.10;;;11.38;;
67941;SDS011;54731;42.600;23.476;2022-11-20T09:55:16;14.13;;;5.87;;
67941;SDS011;54731;42.600;23.476;2022-11-20T09:57:46;28.33;;;11.65;;
67941;SDS011;54731;42.600;23.476;2022-11-20T10:00:13;46.67;;;20.38;;
67941;SDS011;54731;42.600;23.476;2022-11-20T10:05:25;12.00;;;4.65;;
67941;SDS011;54731;42.600;23.476;2022-11-20T10:08:07;22.83;;;8.35;;
67941;SDS011;54731;42.600;23.476;2022-11-20T10:10:46;15.15;;;6.00;;
67941;SDS011;54731;42.600;23.476;2022-11-20T10:21:03;10.65;;;3.92;;
67941;SDS011;54731;42.600;23.476;2022-11-20T10:26:43;15.85;;;4.53;;
67941;SDS011;54731;42.600;23.476;2022-11-20T10:29:17;9.07;;;3.97;;
67941;SDS011;54731;42.600;23.476;2022-11-20T10:31:45;13.60;;;4.68;;
67941;SDS011;54731;42.600;23.476;2022-11-20T10:34:21;10.67;;;3.80;;
67941;SDS011;54731;42.600;23.476;2022-11-20T10:36:55;9.05;;;3.60;;
67941;SDS011;54731;42.600;23.476;2022-11-20T10:39:33;11.68;;;2.75;;
67941;SDS011;54731;42.600;23.476;2022-11-20T10:42:08;8.85;;;3.28;;
67941;SDS011;54731;42.600;23.476;2022-11-20T10:44:39;6.15;;;1.52;;
67941;SDS011;54731;42.600;23.476;2022-11-20T10:47:13;6.80;;;2.50;;
67941;SDS011;54731;42.600;23.476;2022-11-20T10:49:39;9.20;;;3.00;;
67941;SDS011;54731;42.600;23.476;2022-11-20T10:55:49;18.05;;;5.60;;
67941;SDS011;54731;42.600;23.476;2022-11-20T10:57:54;7.47;;;1.92;;
67941;SDS011;54731;42.600;23.476;2022-11-20T11:00:30;8.38;;;1.63;;
67941;SDS011;54731;42.600;23.476;2022-11-20T11:02:56;10.18;;;2.78;;
67941;SDS011;54731;42.600;23.476;2022-11-20T11:05:31;5.17;;;2.80;;
67941;SDS011;54731;42.600;23.476;2022-11-20T11:07:57;7.53;;;3.17;;
67941;SDS011;54731;42.600;23.476;2022-11-20T11:12:57;10.57;;;3.42;;
67941;SDS011;54731;42.600;23.476;2022-11-20T11:15:35;15.20;;;6.73;;
67941;SDS011;54731;42.600;23.476;2022-11-20T11:18:04;45.83;;;17.40;;
67941;SDS011;54731;42.600;23.476;2022-11-20T11:20:30;49.13;;;18.97;;
67941;SDS011;54731;42.600;23.476;2022-11-20T11:22:56;36.10;;;14.53;;
67941;SDS011;54731;42.600;23.476;2022-11-20T11:27:55;19.65;;;9.73;;
67941;SDS011;54731;42.600;23.476;2022-11-20T11:30:26;16.35;;;5.95;;
67941;SDS011;54731;42.600;23.476;2022-11-20T11:33:02;14.17;;;5.73;;
67941;SDS011;54731;42.600;23.476;2022-11-20T11:35:38;23.20;;;7.45;;
67941;SDS011;54731;42.600;23.476;2022-11-20T11:38:16;69.60;;;21.45;;
67941;SDS011;54731;42.600;23.476;2022-11-20T11:40:44;13.02;;;5.38;;
67941;SDS011;54731;42.600;23.476;2022-11-20T11:43:19;38.58;;;18.77;;
67941;SDS011;54731;42.600;23.476;2022-11-20T11:45:52;9.17;;;3.60;;
67941;SDS011;54731;42.600;23.476;2022-11-20T11:48:19;7.15;;;3.60;;
67941;SDS011;54731;42.600;23.476;2022-11-20T11:50:48;23.45;;;6.43;;
67941;SDS011;54731;42.600;23.476;2022-11-20T12:00:36;56.58;;;18.58;;
67941;SDS011;54731;42.600;23.476;2022-11-20T12:05:59;135.38;;;35.00;;
67941;SDS011;54731;42.600;23.476;2022-11-20T12:11:24;74.43;;;22.60;;
67941;SDS011;54731;42.600;23.476;2022-11-20T12:16:45;7.57;;;4.00;;
67941;SDS011;54731;42.600;23.476;2022-11-20T12:19:11;4.93;;;1.90;;
67941;SDS011;54731;42.600;23.476;2022-11-20T12:24:32;3.72;;;1.45;;
67941;SDS011;54731;42.600;23.476;2022-11-20T12:32:54;1.93;;;0.60;;
67941;SDS011;54731;42.600;23.476;2022-11-20T12:41:01;27.77;;;15.30;;
67941;SDS011;54731;42.600;23.476;2022-11-20T12:43:43;32.67;;;17.08;;
67941;SDS011;54731;42.600;23.476;2022-11-20T12:46:38;18.10;;;9.67;;
67941;SDS011;54731;42.600;23.476;2022-11-20T12:49:27;9.32;;;4.57;;
67941;SDS011;54731;42.600;23.476;2022-11-20T12:52:10;25.13;;;14.40;;
67941;SDS011;54731;42.600;23.476;2022-11-20T12:57:44;75.03;;;39.08;;
67941;SDS011;54731;42.600;23.476;2022-11-20T13:00:22;41.23;;;20.23;;
67941;SDS011;54731;42.600;23.476;2022-11-20T13:05:55;22.77;;;9.95;;
67941;SDS011;54731;42.600;23.476;2022-11-20T13:08:35;16.20;;;8.45;;
67941;SDS011;54731;42.600;23.476;2022-11-20T13:16:32;15.57;;;6.63;;
67941;SDS011;54731;42.600;23.476;2022-11-20T13:19:03;22.85;;;9.98;;
67941;SDS011;54731;42.600;23.476;2022-11-20T13:21:37;29.38;;;12.60;;
67941;SDS011;54731;42.600;23.476;2022-11-20T13:24:18;17.98;;;8.20;;
67941;SDS011;54731;42.600;23.476;2022-11-20T13:26:46;40.90;;;18.73;;
67941;SDS011;54731;42.600;23.476;2022-11-20T13:29:16;145.55;;;58.83;;
67941;SDS011;54731;42.600;23.476;2022-11-20T13:31:43;190.23;;;79.70;;
67941;SDS011;54731;42.600;23.476;2022-11-20T13:34:20;17.10;;;6.32;;
67941;SDS011;54731;42.600;23.476;2022-11-20T13:36:49;109.18;;;44.97;;
67941;SDS011;54731;42.600;23.476;2022-11-20T13:39:26;120.95;;;51.85;;
67941;SDS011;54731;42.600;23.476;2022-11-20T13:41:56;132.40;;;49.33;;
67941;SDS011;54731;42.600;23.476;2022-11-20T13:44:39;157.80;;;64.00;;
67941;SDS011;54731;42.600;23.476;2022-11-20T13:49:49;54.47;;;30.15;;
67941;SDS011;54731;42.600;23.476;2022-11-20T14:00:28;54.30;;;26.38;;
67941;SDS011;54731;42.600;23.476;2022-11-20T14:05:32;11.95;;;5.65;;
67941;SDS011;54731;42.600;23.476;2022-11-20T14:08:02;39.63;;;18.60;;
67941;SDS011;54731;42.600;23.476;2022-11-20T14:10:29;11.93;;;6.53;;
67941;SDS011;54731;42.600;23.476;2022-11-20T14:12:55;5.18;;;3.08;;
67941;SDS011;54731;42.600;23.476;2022-11-20T14:15:31;15.97;;;3.63;;
67941;SDS011;54731;42.600;23.476;2022-11-20T14:17:58;80.40;;;44.92;;
67941;SDS011;54731;42.600;23.476;2022-11-20T14:20:28;229.18;;;182.23;;
67941;SDS011;54731;42.600;23.476;2022-11-20T14:22:54;86.88;;;67.60;;
67941;SDS011;54731;42.600;23.476;2022-11-20T14:25:21;118.30;;;49.53;;
67941;SDS011;54731;42.600;23.476;2022-11-20T14:27:51;191.57;;;86.88;;
67941;SDS011;54731;42.600;23.476;2022-11-20T14:30:28;238.47;;;104.50;;
67941;SDS011;54731;42.600;23.476;2022-11-20T14:33:02;108.85;;;51.50;;
67941;SDS011;54731;42.600;23.476;2022-11-20T14:35:29;76.68;;;37.85;;
67941;SDS011;54731;42.600;23.476;2022-11-20T14:37:59;26.27;;;15.45;;
67941;SDS011;54731;42.600;23.476;2022-11-20T14:40:27;265.73;;;88.25;;
67941;SDS011;54731;42.600;23.476;2022-11-20T14:42:57;242.88;;;90.78;;
67941;SDS011;54731;42.600;23.476;2022-11-20T14:45:24;139.80;;;52.50;;
67941;SDS011;54731;42.600;23.476;2022-11-20T14:47:51;95.00;;;39.85;;
67941;SDS011;54731;42.600;23.476;2022-11-20T14:50:27;56.63;;;23.92;;
67941;SDS011;54731;42.600;23.476;2022-11-20T14:52:58;41.53;;;18.73;;
67941;SDS011;54731;42.600;23.476;2022-11-20T14:55:34;138.77;;;56.10;;
67941;SDS011;54731;42.600;23.476;2022-11-20T14:58:03;42.22;;;20.10;;
67941;SDS011;54731;42.600;23.476;2022-11-20T15:00:31;58.65;;;26.25;;
67941;SDS011;54731;42.600;23.476;2022-11-20T15:02:57;60.55;;;25.90;;
67941;SDS011;54731;42.600;23.476;2022-11-20T15:05:24;18.60;;;7.83;;
67941;SDS011;54731;42.600;23.476;2022-11-20T15:08:04;100.70;;;38.97;;
67941;SDS011;54731;42.600;23.476;2022-11-20T15:10:31;77.25;;;40.72;;
67941;SDS011;54731;42.600;23.476;2022-11-20T15:12:59;13.37;;;8.20;;
67941;SDS011;54731;42.600;23.476;2022-11-20T15:15:31;25.15;;;12.65;;
67941;SDS011;54731;42.600;23.476;2022-11-20T15:18:00;19.25;;;8.05;;
67941;SDS011;54731;42.600;23.476;2022-11-20T15:20:26;8.80;;;3.97;;
67941;SDS011;54731;42.600;23.476;2022-11-20T15:22:54;13.55;;;7.22;;
67941;SDS011;54731;42.600;23.476;2022-11-20T15:25:19;20.87;;;12.03;;
67941;SDS011;54731;42.600;23.476;2022-11-20T15:27:45;20.63;;;13.13;;
67941;SDS011;54731;42.600;23.476;2022-11-20T15:30:16;32.85;;;18.60;;
67941;SDS011;54731;42.600;23.476;2022-11-20T15:32:44;78.53;;;41.07;;
67941;SDS011;54731;42.600;23.476;2022-11-20T15:35:10;25.08;;;13.93;;
67941;SDS011;54731;42.600;23.476;2022-11-20T15:37:35;54.27;;;26.33;;
67941;SDS011;54731;42.600;23.476;2022-11-20T15:40:04;39.30;;;16.10;;
67941;SDS011;54731;42.600;23.476;2022-11-20T15:42:30;36.72;;;17.77;;
67941;SDS011;54731;42.600;23.476;2022-11-20T15:44:56;28.75;;;11.10;;
67941;SDS011;54731;42.600;23.476;2022-11-20T15:47:24;19.47;;;7.97;;
67941;SDS011;54731;42.600;23.476;2022-11-20T15:49:52;11.93;;;5.10;;
67941;SDS011;54731;42.600;23.476;2022-11-20T15:52:18;10.20;;;2.75;;
67941;SDS011;54731;42.600;23.476;2022-11-20T15:54:43;5.27;;;2.13;;
67941;SDS011;54731;42.600;23.476;2022-11-20T15:57:08;21.10;;;7.07;;
67941;SDS011;54731;42.600;23.476;2022-11-20T15:59:33;4.83;;;2.23;;
67941;SDS011;54731;42.600;23.476;2022-11-20T16:01:59;4.70;;;2.73;;
67941;SDS011;54731;42.600;23.476;2022-11-20T16:04:24;5.63;;;1.60;;
67941;SDS011;54731;42.600;23.476;2022-11-20T16:06:49;6.57;;;2.30;;